sensor_id;sensor_type;location;lat;lon;timestamp;P1;durP1;ratioP1;P2;durP2;ratioP2
24301;SDS011;12421;49.732;20.078;2023-11-18T00:00:02;8.90;;;5.90;;
24301;SDS011;12421;49.732;20.078;2023-11-18T00:10:34;10.00;;;6.10;;
24301;SDS011;12421;49.732;20.078;2023-11-18T00:20:37;6.20;;;4.10;;
24301;SDS011;12421;49.732;20.078;2023-11-18T00:30:40;6.90;;;4.80;;
24301;SDS011;12421;49.732;20.078;2023-11-18T00:40:44;6.30;;;4.30;;
24301;SDS011;12421;49.732;20.078;2023-11-18T00:50:47;4.60;;;3.50;;
24301;SDS011;12421;49.732;20.078;2023-11-18T01:00:51;8.70;;;5.30;;
24301;SDS011;12421;49.732;20.078;2023-11-18T01:10:55;6.50;;;4.70;;
24301;SDS011;12421;49.732;20.078;2023-11-18T01:20:58;6.70;;;4.80;;
24301;SDS011;12421;49.732;20.078;2023-11-18T01:31:02;6.90;;;4.60;;
24301;SDS011;12421;49.732;20.078;2023-11-18T01:41:07;6.50;;;4.40;;
24301;SDS011;12421;49.732;20.078;2023-11-18T01:51:12;7.10;;;4.00;;
24301;SDS011;12421;49.732;20.078;2023-11-18T02:01:17;6.20;;;3.90;;
24301;SDS011;12421;49.732;20.078;2023-11-18T02:11:24;6.90;;;4.60;;
24301;SDS011;12421;49.732;20.078;2023-11-18T02:21:35;6.60;;;4.90;;
24301;SDS011;12421;49.732;20.078;2023-11-18T02:31:40;6.00;;;4.50;;
24301;SDS011;12421;49.732;20.078;2023-11-18T02:41:46;6.90;;;5.30;;
24301;SDS011;12421;49.732;20.078;2023-11-18T02:51:54;6.10;;;4.50;;
24301;SDS011;12421;49.732;20.078;2023-11-18T03:01:58;8.00;;;5.40;;
24301;SDS011;12421;49.732;20.078;2023-11-18T03:12:01;6.60;;;5.20;;
24301;SDS011;12421;49.732;20.078;2023-11-18T03:22:05;7.90;;;5.70;;
24301;SDS011;12421;49.732;20.078;2023-11-18T03:32:09;6.90;;;4.70;;
24301;SDS011;12421;49.732;20.078;2023-11-18T03:42:12;7.40;;;5.40;;
24301;SDS011;12421;49.732;20.078;2023-11-18T03:52:15;7.20;;;5.80;;
24301;SDS011;12421;49.732;20.078;2023-11-18T04:02:19;8.60;;;5.40;;
24301;SDS011;12421;49.732;20.078;2023-11-18T04:12:22;8.60;;;5.50;;
24301;SDS011;12421;49.732;20.078;2023-11-18T04:22:27;7.50;;;5.20;;
24301;SDS011;12421;49.732;20.078;2023-11-18T04:32:30;6.20;;;5.20;;
24301;SDS011;12421;49.732;20.078;2023-11-18T04:42:37;7.30;;;4.50;;
24301;SDS011;12421;49.732;20.078;2023-11-18T04:52:41;7.00;;;4.90;;
24301;SDS011;12421;49.732;20.078;2023-11-18T05:02:45;6.70;;;5.10;;
24301;SDS011;12421;49.732;20.078;2023-11-18T05:12:52;5.00;;;4.30;;
24301;SDS011;12421;49.732;20.078;2023-11-18T05:22:59;7.00;;;5.30;;
24301;SDS011;12421;49.732;20.078;2023-11-18T05:33:02;8.10;;;4.40;;
24301;SDS011;12421;49.732;20.078;2023-11-18T05:43:09;5.60;;;3.50;;
24301;SDS011;12421;49.732;20.078;2023-11-18T05:53:19;6.90;;;3.80;;
24301;SDS011;12421;49.732;20.078;2023-11-18T06:03:24;3.80;;;2.90;;
24301;SDS011;12421;49.732;20.078;2023-11-18T06:13:28;6.00;;;3.50;;
24301;SDS011;12421;49.732;20.078;2023-11-18T06:23:32;5.70;;;3.70;;
24301;SDS011;12421;49.732;20.078;2023-11-18T06:33:36;6.60;;;4.40;;
24301;SDS011;12421;49.732;20.078;2023-11-18T06:43:41;6.10;;;4.30;;
24301;SDS011;12421;49.732;20.078;2023-11-18T06:53:57;12.60;;;4.90;;
24301;SDS011;12421;49.732;20.078;2023-11-18T07:04:01;6.40;;;4.50;;
24301;SDS011;12421;49.732;20.078;2023-11-18T07:14:05;6.10;;;4.90;;
24301;SDS011;12421;49.732;20.078;2023-11-18T07:24:12;7.70;;;4.60;;
24301;SDS011;12421;49.732;20.078;2023-11-18T07:34:16;10.40;;;7.00;;
24301;SDS011;12421;49.732;20.078;2023-11-18T07:44:19;7.20;;;5.00;;
24301;SDS011;12421;49.732;20.078;2023-11-18T07:54:23;7.60;;;5.40;;
24301;SDS011;12421;49.732;20.078;2023-11-18T08:04:27;9.70;;;7.10;;
24301;SDS011;12421;49.732;20.078;2023-11-18T08:14:31;8.50;;;5.20;;
24301;SDS011;12421;49.732;20.078;2023-11-18T08:24:35;7.90;;;4.80;;
24301;SDS011;12421;49.732;20.078;2023-11-18T08:34:39;4.40;;;2.50;;
24301;SDS011;12421;49.732;20.078;2023-11-18T08:44:44;4.80;;;3.10;;
24301;SDS011;12421;49.732;20.078;2023-11-18T08:54:49;6.10;;;3.10;;
24301;SDS011;12421;49.732;20.078;2023-11-18T09:05:11;4.70;;;2.90;;
24301;SDS011;12421;49.732;20.078;2023-11-18T09:15:16;7.00;;;3.80;;
24301;SDS011;12421;49.732;20.078;2023-11-18T09:25:25;9.70;;;4.10;;
24301;SDS011;12421;49.732;20.078;2023-11-18T09:35:29;6.10;;;4.10;;
24301;SDS011;12421;49.732;20.078;2023-11-18T09:45:32;7.40;;;4.00;;
24301;SDS011;12421;49.732;20.078;2023-11-18T09:55:43;7.30;;;5.80;;
24301;SDS011;12421;49.732;20.078;2023-11-18T10:05:58;11.50;;;7.50;;
24301;SDS011;12421;49.732;20.078;2023-11-18T10:16:08;9.10;;;6.90;;
24301;SDS011;12421;49.732;20.078;2023-11-18T10:26:11;11.30;;;7.70;;
24301;SDS011;12421;49.732;20.078;2023-11-18T10:36:22;8.10;;;5.70;;
24301;SDS011;12421;49.732;20.078;2023-11-18T10:46:26;8.00;;;5.50;;
24301;SDS011;12421;49.732;20.078;2023-11-18T10:56:30;7.90;;;5.30;;
24301;SDS011;12421;49.732;20.078;2023-11-18T11:06:33;10.10;;;6.30;;
24301;SDS011;12421;49.732;20.078;2023-11-18T11:16:38;5.60;;;3.70;;
24301;SDS011;12421;49.732;20.078;2023-11-18T11:37:32;7.50;;;5.40;;
24301;SDS011;12421;49.732;20.078;2023-11-18T11:47:37;6.10;;;4.50;;
24301;SDS011;12421;49.732;20.078;2023-11-18T11:57:52;8.10;;;5.80;;
24301;SDS011;12421;49.732;20.078;2023-11-18T12:07:57;8.80;;;7.00;;
24301;SDS011;12421;49.732;20.078;2023-11-18T12:28:06;9.90;;;7.50;;
24301;SDS011;12421;49.732;20.078;2023-11-18T12:49:00;9.90;;;8.30;;
24301;SDS011;12421;49.732;20.078;2023-11-18T12:59:05;11.70;;;8.70;;
24301;SDS011;12421;49.732;20.078;2023-11-18T13:09:09;10.10;;;7.50;;
24301;SDS011;12421;49.732;20.078;2023-11-18T13:19:22;9.20;;;7.10;;
24301;SDS011;12421;49.732;20.078;2023-11-18T13:29:27;10.60;;;7.80;;
24301;SDS011;12421;49.732;20.078;2023-11-18T13:39:30;11.10;;;8.20;;
24301;SDS011;12421;49.732;20.078;2023-11-18T13:49:34;13.10;;;7.30;;
24301;SDS011;12421;49.732;20.078;2023-11-18T13:59:38;14.80;;;8.40;;
24301;SDS011;12421;49.732;20.078;2023-11-18T14:09:45;9.80;;;7.70;;
24301;SDS011;12421;49.732;20.078;2023-11-18T14:19:48;11.70;;;7.90;;
24301;SDS011;12421;49.732;20.078;2023-11-18T14:29:55;11.70;;;7.80;;
24301;SDS011;12421;49.732;20.078;2023-11-18T14:39:58;10.00;;;7.30;;
24301;SDS011;12421;49.732;20.078;2023-11-18T14:50:02;10.00;;;7.40;;
24301;SDS011;12421;49.732;20.078;2023-11-18T15:00:08;12.20;;;8.80;;
24301;SDS011;12421;49.732;20.078;2023-11-18T15:10:17;15.00;;;10.40;;
24301;SDS011;12421;49.732;20.078;2023-11-18T15:20:25;18.70;;;10.30;;
24301;SDS011;12421;49.732;20.078;2023-11-18T15:30:29;14.00;;;9.40;;
24301;SDS011;12421;49.732;20.078;2023-11-18T15:40:32;16.90;;;10.20;;
24301;SDS011;12421;49.732;20.078;2023-11-18T15:50:36;15.20;;;9.50;;
24301;SDS011;12421;49.732;20.078;2023-11-18T16:00:43;17.00;;;11.40;;
24301;SDS011;12421;49.732;20.078;2023-11-18T16:10:47;16.40;;;10.40;;
24301;SDS011;12421;49.732;20.078;2023-11-18T16:20:50;18.00;;;11.20;;
24301;SDS011;12421;49.732;20.078;2023-11-18T16:30:55;14.90;;;10.00;;
24301;SDS011;12421;49.732;20.078;2023-11-18T16:41:03;13.60;;;8.60;;
24301;SDS011;12421;49.732;20.078;2023-11-18T16:51:07;15.60;;;11.20;;
24301;SDS011;12421;49.732;20.078;2023-11-18T17:01:13;13.90;;;9.60;;
24301;SDS011;12421;49.732;20.078;2023-11-18T17:11:16;32.20;;;17.00;;
24301;SDS011;12421;49.732;20.078;2023-11-18T17:21:20;16.10;;;11.10;;
24301;SDS011;12421;49.732;20.078;2023-11-18T17:31:24;18.20;;;13.10;;
24301;SDS011;12421;49.732;20.078;2023-11-18T17:41:28;21.90;;;13.90;;
24301;SDS011;12421;49.732;20.078;2023-11-18T17:51:32;22.50;;;14.30;;
24301;SDS011;12421;49.732;20.078;2023-11-18T18:01:36;18.10;;;12.60;;
24301;SDS011;12421;49.732;20.078;2023-11-18T18:11:49;26.10;;;14.90;;
24301;SDS011;12421;49.732;20.078;2023-11-18T18:21:52;23.20;;;15.50;;
24301;SDS011;12421;49.732;20.078;2023-11-18T18:31:55;19.60;;;14.00;;
24301;SDS011;12421;49.732;20.078;2023-11-18T18:41:59;33.90;;;21.70;;
24301;SDS011;12421;49.732;20.078;2023-11-18T18:52:03;42.50;;;23.30;;
24301;SDS011;12421;49.732;20.078;2023-11-18T19:02:08;22.90;;;15.00;;
24301;SDS011;12421;49.732;20.078;2023-11-18T19:12:11;26.40;;;16.80;;
24301;SDS011;12421;49.732;20.078;2023-11-18T19:22:15;25.60;;;17.80;;
24301;SDS011;12421;49.732;20.078;2023-11-18T19:32:18;22.90;;;15.70;;
24301;SDS011;12421;49.732;20.078;2023-11-18T19:42:25;25.00;;;16.30;;
24301;SDS011;12421;49.732;20.078;2023-11-18T19:52:29;21.90;;;14.90;;
24301;SDS011;12421;49.732;20.078;2023-11-18T20:02:33;29.90;;;17.60;;
24301;SDS011;12421;49.732;20.078;2023-11-18T20:22:44;23.00;;;14.60;;
24301;SDS011;12421;49.732;20.078;2023-11-18T20:32:57;23.60;;;15.70;;
24301;SDS011;12421;49.732;20.078;2023-11-18T20:43:01;21.60;;;14.90;;
24301;SDS011;12421;49.732;20.078;2023-11-18T20:53:05;24.40;;;16.00;;
24301;SDS011;12421;49.732;20.078;2023-11-18T21:03:08;24.90;;;16.60;;
24301;SDS011;12421;49.732;20.078;2023-11-18T21:13:12;23.30;;;16.20;;
24301;SDS011;12421;49.732;20.078;2023-11-18T21:23:16;24.40;;;16.50;;
24301;SDS011;12421;49.732;20.078;2023-11-18T21:33:19;25.90;;;17.30;;
24301;SDS011;12421;49.732;20.078;2023-11-18T21:43:24;27.30;;;18.10;;
24301;SDS011;12421;49.732;20.078;2023-11-18T21:53:28;28.20;;;17.10;;
24301;SDS011;12421;49.732;20.078;2023-11-18T22:03:31;26.20;;;17.50;;
24301;SDS011;12421;49.732;20.078;2023-11-18T22:13:34;23.60;;;16.10;;
24301;SDS011;12421;49.732;20.078;2023-11-18T22:23:38;24.60;;;16.00;;
24301;SDS011;12421;49.732;20.078;2023-11-18T22:33:41;26.70;;;17.70;;
24301;SDS011;12421;49.732;20.078;2023-11-18T22:43:46;23.50;;;16.20;;
24301;SDS011;12421;49.732;20.078;2023-11-18T22:53:50;23.00;;;15.30;;
24301;SDS011;12421;49.732;20.078;2023-11-18T23:03:55;22.20;;;15.30;;
24301;SDS011;12421;49.732;20.078;2023-11-18T23:14:01;25.40;;;14.70;;
24301;SDS011;12421;49.732;20.078;2023-11-18T23:24:06;21.00;;;13.80;;
24301;SDS011;12421;49.732;20.078;2023-11-18T23:34:11;24.30;;;14.90;;
24301;SDS011;12421;49.732;20.078;2023-11-18T23:44:15;23.30;;;15.50;;
24301;SDS011;12421;49.732;20.078;2023-11-18T23:54:21;27.60;;;17.70;;
